Time;durP1;ratioP1;P1;durP2;ratioP2;P2;SDS_P1;SDS_P2;PMS_P1;PMS_P2;Temp;Humidity;BMP_temperature;BMP_pressure;BME280_temperature;BME280_humidity;BME280_pressure;Samples;Min_cycle;Max_cycle;Signal;HPM_P1;HPM_P2
2022/11/20 00:01:22;;;;;;;26.42;17.38;;;8.60;99.90;;;;;;5003615;28;20029;-69
2022/11/20 00:03:48;;;;;;;21.10;13.85;;;8.70;99.90;;;;;;5003536;28;20014;-68
2022/11/20 00:06:17;;;;;;;20.65;13.75;;;8.60;99.90;;;;;;5008165;28;20088;-69
2022/11/20 00:08:43;;;;;;;20.55;13.95;;;8.70;99.90;;;;;;5013609;28;20053;-70
2022/11/20 00:11:11;;;;;;;21.50;15.32;;;8.70;99.90;;;;;;5012553;28;20029;-69
2022/11/20 00:13:37;;;;;;;20.13;12.10;;;8.50;99.90;;;;;;5011918;28;20388;-70
2022/11/20 00:16:05;;;;;;;20.17;13.50;;;8.50;99.90;;;;;;5009450;28;20049;-69
2022/11/20 00:18:33;;;;;;;19.35;12.45;;;8.40;99.90;;;;;;5014174;28;20022;-70
2022/11/20 00:21:09;;;;;;;17.88;11.40;;;8.50;99.90;;;;;;4992112;28;20022;-70
2022/11/20 00:23:35;;;;;;;18.38;12.00;;;8.50;99.90;;;;;;5021540;28;20056;-70
2022/11/20 00:26:05;;;;;;;17.50;11.82;;;8.40;99.90;;;;;;5013880;28;20049;-67
2022/11/20 00:28:31;;;;;;;18.00;12.13;;;8.30;99.90;;;;;;4999862;28;20038;-69
2022/11/20 00:31:05;;;;;;;17.40;11.57;;;8.40;99.90;;;;;;5010019;28;20068;-69
2022/11/20 00:33:30;;;;;;;17.95;11.35;;;8.40;99.90;;;;;;4998518;28;20040;-71
2022/11/20 00:36:01;;;;;;;19.00;12.68;;;8.30;99.90;;;;;;5013342;28;20030;-69
2022/11/20 00:38:27;;;;;;;19.05;12.82;;;8.30;99.90;;;;;;5012451;28;20116;-67
2022/11/20 00:41:04;;;;;;;20.35;14.35;;;8.40;99.90;;;;;;5012416;28;20059;-67
2022/11/20 00:43:30;;;;;;;19.67;13.95;;;8.30;99.90;;;;;;5013105;28;20030;-70
2022/11/20 00:46:05;;;;;;;22.58;12.55;;;8.30;99.90;;;;;;5013784;28;20103;-69
2022/11/20 00:48:32;;;;;;;22.60;13.57;;;8.30;99.90;;;;;;5012754;28;20021;-68
2022/11/20 00:50:58;;;;;;;22.20;13.55;;;8.30;99.90;;;;;;5013329;28;20030;-67
2022/11/20 00:53:24;;;;;;;18.65;11.35;;;8.30;99.90;;;;;;5012713;28;20380;-69
2022/11/20 00:56:01;;;;;;;15.45;10.23;;;8.30;99.90;;;;;;5012806;28;20117;-69
2022/11/20 00:58:32;;;;;;;16.95;10.65;;;8.20;99.90;;;;;;5012090;28;20730;-69
2022/11/20 01:01:09;;;;;;;16.10;10.20;;;8.20;99.90;;;;;;5012847;28;20480;-69
2022/11/20 01:03:39;;;;;;;15.20;9.73;;;8.30;99.90;;;;;;5010264;28;20022;-69
2022/11/20 01:06:11;;;;;;;17.65;10.85;;;8.30;99.90;;;;;;5013074;28;20117;-70
2022/11/20 01:08:38;;;;;;;15.48;9.82;;;8.30;99.90;;;;;;5012165;28;20022;-69
2022/11/20 01:11:15;;;;;;;16.70;10.80;;;8.30;99.90;;;;;;5012030;28;20038;-70
2022/11/20 01:13:42;;;;;;;17.65;10.77;;;8.20;99.90;;;;;;5012521;28;20040;-69
2022/11/20 01:16:15;;;;;;;14.55;9.40;;;8.20;99.90;;;;;;5012910;28;20484;-69
2022/11/20 01:18:44;;;;;;;13.80;9.55;;;8.10;99.90;;;;;;4994957;28;20114;-69
2022/11/20 01:21:19;;;;;;;13.43;9.15;;;8.10;99.90;;;;;;5012714;28;20101;-71
2022/11/20 01:23:49;;;;;;;14.15;8.70;;;8.10;99.90;;;;;;5012115;28;20034;-68
2022/11/20 01:26:28;;;;;;;15.63;9.35;;;8.20;99.90;;;;;;5012734;28;20117;-68
2022/11/20 01:28:55;;;;;;;17.30;9.32;;;8.10;99.90;;;;;;5012297;28;20500;-70
2022/11/20 01:31:25;;;;;;;15.02;9.43;;;8.10;99.90;;;;;;5012394;28;20048;-69
2022/11/20 01:33:53;;;;;;;15.88;8.93;;;8.10;99.90;;;;;;5012405;28;20034;-69
2022/11/20 01:36:21;;;;;;;17.58;9.90;;;8.10;99.90;;;;;;5012691;28;20060;-70
2022/11/20 01:38:54;;;;;;;16.35;9.82;;;8.10;99.90;;;;;;5011435;28;20361;-73
2022/11/20 01:44:05;;;;;;;16.30;9.55;;;8.10;99.90;;;;;;4998675;28;20030;-69
2022/11/20 01:46:35;;;;;;;17.73;10.27;;;8.10;99.90;;;;;;5012466;28;20136;-69
2022/11/20 01:49:07;;;;;;;16.23;8.68;;;8.00;99.90;;;;;;5012273;28;20037;-72
2022/11/20 01:51:38;;;;;;;15.60;9.52;;;8.00;99.90;;;;;;5012360;28;20084;-69
2022/11/20 01:54:12;;;;;;;16.80;9.75;;;7.90;99.90;;;;;;5010915;28;20030;-68
2022/11/20 01:56:40;;;;;;;16.85;10.25;;;8.00;99.90;;;;;;5011789;28;20038;-69
2022/11/20 01:59:12;;;;;;;15.82;9.35;;;8.00;99.90;;;;;;5012329;28;20025;-68
2022/11/20 02:01:38;;;;;;;15.90;9.73;;;8.00;99.90;;;;;;5010470;28;20047;-68
2022/11/20 02:04:07;;;;;;;16.50;9.98;;;8.00;99.90;;;;;;5012205;28;20056;-69
2022/11/20 02:06:40;;;;;;;16.80;9.73;;;8.00;99.90;;;;;;5011831;28;20461;-68
2022/11/20 02:09:06;;;;;;;15.55;8.77;;;8.00;99.90;;;;;;5008347;28;20033;-70
2022/11/20 02:11:32;;;;;;;15.40;10.05;;;7.90;99.90;;;;;;5008817;28;20093;-72
2022/11/20 02:13:59;;;;;;;17.65;10.98;;;8.00;99.90;;;;;;5006856;28;20101;-69
2022/11/20 02:16:31;;;;;;;19.58;11.07;;;8.00;99.90;;;;;;5011408;28;20038;-68
2022/11/20 02:19:00;;;;;;;15.68;9.77;;;7.90;99.90;;;;;;5001253;28;20023;-70
2022/11/20 02:21:41;;;;;;;19.65;11.10;;;7.90;99.90;;;;;;5012434;28;20022;-68
2022/11/20 02:24:12;;;;;;;16.70;10.38;;;7.90;99.90;;;;;;5011267;28;20495;-68
2022/11/20 02:27:12;;;;;;;19.75;11.30;;;7.90;99.90;;;;;;5006587;28;20404;-69
2022/11/20 02:29:55;;;;;;;16.40;9.63;;;7.90;99.90;;;;;;5005534;28;20034;-68
2022/11/20 02:32:26;;;;;;;17.80;10.63;;;7.90;99.90;;;;;;5007076;28;20030;-67
2022/11/20 02:34:52;;;;;;;18.75;12.43;;;8.00;99.90;;;;;;5006044;28;20077;-69
2022/11/20 02:37:20;;;;;;;18.08;11.23;;;8.00;99.90;;;;;;5010824;28;20049;-69
2022/11/20 02:39:51;;;;;;;17.98;11.48;;;7.90;99.90;;;;;;5010730;28;20025;-68
2022/11/20 02:42:17;;;;;;;21.63;12.18;;;7.90;99.90;;;;;;5013851;28;20113;-68
2022/11/20 02:44:43;;;;;;;18.75;11.95;;;7.90;99.90;;;;;;5006395;28;20032;-68
2022/11/20 02:47:09;;;;;;;18.80;11.23;;;7.90;99.90;;;;;;4995245;28;20034;-71
2022/11/20 02:49:35;;;;;;;18.25;11.30;;;7.90;99.90;;;;;;4989758;28;20018;-69
2022/11/20 02:52:01;;;;;;;20.05;11.85;;;7.90;99.90;;;;;;4993964;28;20046;-68
2022/11/20 02:54:27;;;;;;;19.65;11.73;;;7.90;99.90;;;;;;4989546;28;20027;-70
2022/11/20 02:56:53;;;;;;;20.67;13.00;;;7.90;99.90;;;;;;4989432;28;20084;-68
2022/11/20 02:59:19;;;;;;;20.20;12.35;;;7.90;99.90;;;;;;4989577;28;20082;-68
2022/11/20 03:01:45;;;;;;;23.65;14.43;;;7.90;99.90;;;;;;4989956;28;20034;-68
2022/11/20 03:04:11;;;;;;;20.58;12.93;;;7.90;99.90;;;;;;4989687;28;20098;-69
2022/11/20 03:06:36;;;;;;;21.60;13.65;;;7.90;99.90;;;;;;4993841;28;20033;-71
2022/11/20 03:09:02;;;;;;;29.48;14.60;;;8.00;99.90;;;;;;4989837;28;20030;-71
2022/11/20 03:11:29;;;;;;;23.10;13.88;;;7.90;99.90;;;;;;4989944;28;20104;-69
2022/11/20 03:13:54;;;;;;;20.48;12.43;;;7.90;99.90;;;;;;4992997;28;20031;-69
2022/11/20 03:16:22;;;;;;;17.70;11.07;;;7.90;99.90;;;;;;4993123;28;20042;-69
2022/11/20 03:18:49;;;;;;;20.92;13.13;;;7.90;99.90;;;;;;4993374;28;20022;-68
2022/11/20 03:21:15;;;;;;;23.50;14.05;;;7.90;99.90;;;;;;4996525;28;20030;-69
2022/11/20 03:23:41;;;;;;;19.17;12.13;;;7.80;99.90;;;;;;4994319;28;20022;-68
2022/11/20 03:26:19;;;;;;;19.70;12.48;;;7.80;99.90;;;;;;4991035;28;20382;-68
2022/11/20 03:28:50;;;;;;;23.85;14.23;;;7.80;99.90;;;;;;4992738;28;20029;-68
2022/11/20 03:31:19;;;;;;;21.42;13.68;;;7.70;99.90;;;;;;4996986;28;20035;-68
2022/11/20 03:33:45;;;;;;;22.30;12.40;;;7.70;99.90;;;;;;4992720;28;20093;-69
2022/11/20 03:36:13;;;;;;;24.10;14.20;;;7.70;99.90;;;;;;4993021;28;20121;-68
2022/11/20 03:38:40;;;;;;;23.58;14.75;;;7.70;99.90;;;;;;4995312;28;20041;-68
2022/11/20 03:41:11;;;;;;;23.70;13.80;;;7.70;99.90;;;;;;4992473;28;20684;-69
2022/11/20 03:43:37;;;;;;;22.08;13.73;;;7.70;99.90;;;;;;4996798;28;20026;-70
2022/11/20 03:46:05;;;;;;;23.60;14.27;;;7.80;99.90;;;;;;4993007;28;20053;-69
2022/11/20 03:48:31;;;;;;;26.73;13.90;;;7.70;99.90;;;;;;4992693;28;20034;-69
2022/11/20 03:51:17;;;;;;;23.27;13.30;;;7.70;99.90;;;;;;4992804;28;20041;-68
2022/11/20 03:53:45;;;;;;;20.70;12.35;;;7.60;99.90;;;;;;4992412;28;20026;-68
2022/11/20 03:56:12;;;;;;;22.75;13.02;;;7.60;99.90;;;;;;4991249;28;20042;-70
2022/11/20 03:58:39;;;;;;;22.83;13.50;;;7.60;99.90;;;;;;4992800;28;20612;-70
2022/11/20 04:01:17;;;;;;;21.17;12.73;;;7.60;99.90;;;;;;4992457;28;20026;-70
2022/11/20 04:03:44;;;;;;;26.48;15.75;;;7.60;99.90;;;;;;4992443;28;20480;-69
2022/11/20 04:06:16;;;;;;;25.25;15.32;;;7.60;99.90;;;;;;4992956;28;20022;-71
2022/11/20 04:08:42;;;;;;;24.00;13.63;;;7.60;99.90;;;;;;4992429;28;20489;-69
2022/11/20 04:11:14;;;;;;;21.38;12.68;;;7.50;99.90;;;;;;4992251;28;20046;-68
2022/11/20 04:13:42;;;;;;;19.63;11.55;;;7.50;99.90;;;;;;4995827;28;20022;-68
2022/11/20 04:16:09;;;;;;;20.38;12.82;;;7.50;99.90;;;;;;4991974;28;20046;-69
2022/11/20 04:18:35;;;;;;;19.30;12.35;;;7.50;99.90;;;;;;4992305;28;20018;-69
2022/11/20 04:21:02;;;;;;;20.25;12.90;;;7.50;99.90;;;;;;4996091;28;20175;-68
2022/11/20 04:23:28;;;;;;;20.98;12.30;;;7.50;99.90;;;;;;4992289;28;20097;-69
2022/11/20 04:25:54;;;;;;;20.88;11.98;;;7.60;99.90;;;;;;4991636;28;20053;-68
2022/11/20 04:28:20;;;;;;;21.75;12.32;;;7.50;99.90;;;;;;4991698;28;20651;-68
2022/11/20 04:30:46;;;;;;;19.42;11.95;;;7.50;99.90;;;;;;5002427;28;20018;-68
2022/11/20 04:33:12;;;;;;;19.52;11.77;;;7.60;99.90;;;;;;5011105;28;20096;-68
2022/11/20 04:35:38;;;;;;;17.77;11.27;;;7.60;99.90;;;;;;5010974;28;20061;-71
2022/11/20 04:38:04;;;;;;;18.85;10.80;;;7.60;99.90;;;;;;5011241;28;20046;-70
2022/11/20 04:40:30;;;;;;;18.25;9.98;;;7.60;99.90;;;;;;5006026;28;20027;-69
2022/11/20 04:42:56;;;;;;;17.63;10.25;;;7.60;99.90;;;;;;4996189;28;20489;-73
2022/11/20 04:45:23;;;;;;;16.75;9.75;;;7.60;99.90;;;;;;4991221;28;20033;-71
2022/11/20 04:47:49;;;;;;;18.55;10.98;;;7.60;99.90;;;;;;4991700;28;20033;-68
2022/11/20 04:50:16;;;;;;;18.27;10.32;;;7.70;99.90;;;;;;4991173;28;20068;-72
2022/11/20 04:52:42;;;;;;;17.80;10.20;;;7.70;99.90;;;;;;4993154;28;20404;-70
2022/11/20 04:55:07;;;;;;;17.45;9.02;;;7.70;99.90;;;;;;4991359;28;20030;-70
2022/11/20 04:57:33;;;;;;;18.25;10.07;;;7.70;99.90;;;;;;4990390;28;20045;-68
2022/11/20 04:59:59;;;;;;;19.83;10.75;;;7.70;99.90;;;;;;4990997;28;20487;-67
2022/11/20 05:02:25;;;;;;;16.88;9.93;;;7.70;99.90;;;;;;4991393;28;20166;-69
2022/11/20 05:04:51;;;;;;;18.10;10.25;;;7.70;99.90;;;;;;4991029;28;20014;-74
2022/11/20 05:07:16;;;;;;;18.20;10.80;;;7.70;99.90;;;;;;4991601;28;20395;-70
2022/11/20 05:09:44;;;;;;;16.92;10.93;;;7.70;99.90;;;;;;4993390;28;20018;-76
2022/11/20 05:12:10;;;;;;;18.00;10.20;;;7.70;99.90;;;;;;4991557;28;20034;-74
2022/11/20 05:14:36;;;;;;;21.00;9.65;;;7.70;99.90;;;;;;4998636;28;20025;-76
2022/11/20 05:17:02;;;;;;;18.40;10.65;;;7.70;99.90;;;;;;4991039;28;20042;-67
2022/11/20 05:19:27;;;;;;;16.33;9.75;;;7.60;99.90;;;;;;4991091;28;20616;-73
2022/11/20 05:21:53;;;;;;;18.95;10.93;;;7.70;99.90;;;;;;4990855;28;20034;-68
2022/11/20 05:24:19;;;;;;;16.25;9.20;;;7.60;99.90;;;;;;4991178;28;20496;-69
2022/11/20 05:26:45;;;;;;;15.80;8.10;;;7.70;99.90;;;;;;4990228;28;20089;-69
2022/11/20 05:29:11;;;;;;;17.20;8.85;;;7.70;99.90;;;;;;4990291;28;20540;-68
2022/11/20 05:31:40;;;;;;;15.02;8.60;;;7.70;99.90;;;;;;4990796;28;20396;-67
2022/11/20 05:34:06;;;;;;;17.65;7.93;;;7.70;99.90;;;;;;4990526;28;20027;-68
2022/11/20 05:36:32;;;;;;;13.73;6.93;;;7.60;99.90;;;;;;4989907;28;20042;-69
2022/11/20 05:38:58;;;;;;;19.75;7.57;;;7.60;99.90;;;;;;4991509;28;20049;-67
2022/11/20 05:41:24;;;;;;;14.93;7.60;;;7.70;99.90;;;;;;4990041;28;20428;-68
2022/11/20 05:43:50;;;;;;;19.20;8.80;;;7.70;99.90;;;;;;4991788;28;20033;-69
2022/11/20 05:46:20;;;;;;;13.35;7.70;;;7.70;99.90;;;;;;4990696;28;20029;-67
2022/11/20 05:48:46;;;;;;;25.45;11.15;;;7.70;99.90;;;;;;4990313;28;20029;-67
2022/11/20 05:51:15;;;;;;;20.55;10.63;;;7.70;99.90;;;;;;4989924;28;20043;-69
2022/11/20 05:53:42;;;;;;;20.15;10.88;;;7.80;99.90;;;;;;4990422;28;20030;-72
2022/11/20 05:56:11;;;;;;;16.05;10.00;;;7.70;99.90;;;;;;4989995;28;20034;-69
2022/11/20 05:58:38;;;;;;;16.98;9.93;;;7.70;99.90;;;;;;4990357;28;20053;-70
2022/11/20 06:01:09;;;;;;;14.68;8.45;;;7.70;99.90;;;;;;4994402;28;20500;-69
2022/11/20 06:03:35;;;;;;;14.55;8.05;;;7.80;99.90;;;;;;4992013;28;20455;-68
2022/11/20 06:06:01;;;;;;;16.38;8.88;;;7.90;99.90;;;;;;4989232;28;20093;-67
2022/11/20 06:08:27;;;;;;;16.35;8.95;;;7.90;99.90;;;;;;4994654;28;20036;-68
2022/11/20 06:10:53;;;;;;;16.83;9.18;;;7.90;99.90;;;;;;4990013;28;20037;-76
2022/11/20 06:13:19;;;;;;;18.27;10.18;;;8.00;99.90;;;;;;4980344;28;20035;-69
2022/11/20 06:15:52;;;;;;;18.42;10.77;;;7.90;99.90;;;;;;4990775;28;20019;-75
2022/11/20 06:18:18;;;;;;;17.40;9.77;;;7.90;99.90;;;;;;4990627;28;20066;-75
2022/11/20 06:20:44;;;;;;;17.90;9.85;;;7.90;99.90;;;;;;4990053;28;20054;-67
2022/11/20 06:23:11;;;;;;;20.73;10.63;;;7.90;99.90;;;;;;4993262;28;20053;-74
2022/11/20 06:25:41;;;;;;;15.90;9.27;;;7.90;99.90;;;;;;4989811;28;20042;-71
2022/11/20 06:28:08;;;;;;;19.80;10.43;;;7.90;99.90;;;;;;4989623;28;20081;-69
2022/11/20 06:30:35;;;;;;;18.00;10.55;;;7.90;99.90;;;;;;4989902;28;20077;-73
2022/11/20 06:33:01;;;;;;;18.88;11.27;;;7.90;99.90;;;;;;4989925;28;20037;-74
2022/11/20 06:35:27;;;;;;;18.45;9.88;;;7.70;99.90;;;;;;4989898;28;20113;-73
2022/11/20 06:37:53;;;;;;;17.85;11.98;;;7.80;99.90;;;;;;4990984;28;20137;-73
2022/11/20 06:40:19;;;;;;;15.52;8.73;;;7.80;99.90;;;;;;4989914;28;20021;-70
2022/11/20 06:42:45;;;;;;;14.27;6.38;;;7.70;99.90;;;;;;4989606;28;20056;-69
2022/11/20 06:45:10;;;;;;;16.63;8.60;;;7.70;99.90;;;;;;4994126;28;20026;-68
2022/11/20 06:47:36;;;;;;;11.82;7.03;;;7.70;99.90;;;;;;4991483;28;20492;-68
2022/11/20 06:50:03;;;;;;;9.15;5.40;;;7.70;99.90;;;;;;4994027;28;20778;-68
2022/11/20 06:52:29;;;;;;;9.50;5.00;;;7.60;99.90;;;;;;4992534;28;20046;-72
2022/11/20 06:54:54;;;;;;;12.00;7.10;;;7.70;99.90;;;;;;4996177;28;20101;-67
2022/11/20 06:57:20;;;;;;;13.38;7.95;;;7.70;99.90;;;;;;4994614;28;20424;-70
2022/11/20 06:59:46;;;;;;;14.07;8.77;;;7.80;99.90;;;;;;4993715;28;20019;-68
2022/11/20 07:02:12;;;;;;;14.75;7.78;;;7.70;99.90;;;;;;4993186;28;20030;-68
2022/11/20 07:04:38;;;;;;;16.67;9.02;;;7.70;99.90;;;;;;4997764;28;20018;-68
2022/11/20 07:07:05;;;;;;;18.42;10.40;;;7.70;99.90;;;;;;5000449;28;20123;-74
2022/11/20 07:09:32;;;;;;;13.45;7.18;;;7.80;99.90;;;;;;4993311;28;20081;-70
2022/11/20 07:11:58;;;;;;;14.07;7.90;;;7.80;99.90;;;;;;4993144;28;20034;-72
2022/11/20 07:14:23;;;;;;;15.25;8.88;;;7.80;99.90;;;;;;4993323;28;20405;-73
2022/11/20 07:16:49;;;;;;;12.77;7.47;;;7.90;99.90;;;;;;4993266;28;20026;-71
2022/11/20 07:19:15;;;;;;;13.15;7.65;;;7.90;99.90;;;;;;4995647;28;20069;-67
2022/11/20 07:21:41;;;;;;;11.05;5.80;;;7.90;99.90;;;;;;4993094;28;20408;-67
2022/11/20 07:24:07;;;;;;;11.68;6.57;;;8.00;99.90;;;;;;4994713;28;20397;-75
2022/11/20 07:26:32;;;;;;;9.55;5.50;;;8.00;99.90;;;;;;4991404;28;20433;-67
2022/11/20 07:28:58;;;;;;;9.73;5.32;;;8.10;99.90;;;;;;4995395;28;20046;-73
2022/11/20 07:31:24;;;;;;;8.63;4.95;;;7.90;99.90;;;;;;4994982;28;20428;-71
2022/11/20 07:33:50;;;;;;;10.27;4.97;;;7.90;99.90;;;;;;4993190;28;20022;-76
2022/11/20 07:36:16;;;;;;;11.23;4.95;;;7.80;99.90;;;;;;5007234;28;20118;-66
2022/11/20 07:38:44;;;;;;;11.52;6.32;;;7.90;99.90;;;;;;4995740;28;20030;-66
2022/11/20 07:41:10;;;;;;;13.73;7.47;;;8.00;99.90;;;;;;5000868;28;20500;-67
2022/11/20 07:43:36;;;;;;;20.23;11.50;;;7.90;99.90;;;;;;5007763;28;20022;-68
2022/11/20 07:46:03;;;;;;;12.90;5.93;;;7.90;99.90;;;;;;5004306;28;20369;-68
2022/11/20 07:48:29;;;;;;;8.45;5.22;;;7.90;99.90;;;;;;5012795;28;20033;-68
2022/11/20 07:50:55;;;;;;;28.23;15.88;;;7.90;99.90;;;;;;5000262;28;20031;-73
2022/11/20 07:53:22;;;;;;;24.67;8.98;;;7.90;99.90;;;;;;4993695;28;20069;-67
2022/11/20 07:55:48;;;;;;;17.98;10.35;;;7.80;99.90;;;;;;4995081;28;20022;-70
2022/11/20 07:58:14;;;;;;;18.67;10.90;;;7.80;99.90;;;;;;5012632;28;20534;-68
2022/11/20 08:00:40;;;;;;;20.02;11.88;;;7.80;99.90;;;;;;5012683;28;20018;-68
2022/11/20 08:03:07;;;;;;;19.98;12.05;;;7.80;99.90;;;;;;5013276;28;20058;-72
2022/11/20 08:05:33;;;;;;;23.58;13.98;;;7.80;99.90;;;;;;5012379;28;20022;-74
2022/11/20 08:07:59;;;;;;;23.65;13.15;;;7.80;99.90;;;;;;5013210;28;20072;-69
2022/11/20 08:10:25;;;;;;;21.77;12.82;;;7.80;99.90;;;;;;5012432;28;20428;-67
2022/11/20 08:15:38;;;;;;;19.35;9.80;;;7.80;99.90;;;;;;5012564;28;20109;-71
2022/11/20 08:18:10;;;;;;;17.65;10.05;;;7.90;99.90;;;;;;5006726;28;20041;-70
2022/11/20 08:20:36;;;;;;;19.08;12.25;;;7.90;99.90;;;;;;5010959;28;20080;-70
2022/11/20 08:23:05;;;;;;;15.95;8.88;;;7.90;99.90;;;;;;5012532;28;20030;-68
2022/11/20 08:25:33;;;;;;;14.02;7.95;;;7.90;99.90;;;;;;5013155;28;20105;-69
2022/11/20 08:28:01;;;;;;;21.20;11.30;;;7.90;99.90;;;;;;4994666;28;20049;-68
2022/11/20 08:30:27;;;;;;;14.75;8.55;;;7.80;99.90;;;;;;5012758;28;20134;-69
2022/11/20 08:32:54;;;;;;;17.27;8.80;;;7.90;99.90;;;;;;5013212;28;20101;-75
2022/11/20 08:35:23;;;;;;;11.68;7.00;;;7.80;99.90;;;;;;5012809;28;20138;-69
2022/11/20 08:37:49;;;;;;;18.05;10.63;;;7.80;99.90;;;;;;5003696;28;20040;-69
2022/11/20 08:40:15;;;;;;;22.77;12.13;;;7.90;99.90;;;;;;5011903;28;20022;-69
2022/11/20 08:42:51;;;;;;;20.98;12.20;;;8.00;99.90;;;;;;5003579;28;20108;-71
2022/11/20 08:45:18;;;;;;;22.00;12.90;;;7.80;99.90;;;;;;5000197;28;20110;-68
2022/11/20 08:47:45;;;;;;;19.80;12.02;;;7.90;99.90;;;;;;4989333;28;20026;-70
2022/11/20 08:50:13;;;;;;;19.10;10.80;;;8.00;99.90;;;;;;5003373;28;20053;-70
2022/11/20 08:52:39;;;;;;;14.00;8.10;;;8.00;99.90;;;;;;5007717;28;20033;-71
2022/11/20 08:55:06;;;;;;;17.83;8.93;;;8.00;99.90;;;;;;5003775;28;20048;-69
2022/11/20 08:57:35;;;;;;;15.77;9.20;;;8.10;99.90;;;;;;4990847;28;20096;-68
2022/11/20 09:00:03;;;;;;;10.93;6.15;;;8.00;99.90;;;;;;5009639;28;20038;-69
2022/11/20 09:02:29;;;;;;;13.02;7.68;;;8.00;99.90;;;;;;5010238;28;20030;-74
2022/11/20 09:04:55;;;;;;;19.73;12.52;;;8.00;99.90;;;;;;5005716;28;20058;-70
2022/11/20 09:07:21;;;;;;;15.05;9.50;;;8.00;99.90;;;;;;5005723;28;20029;-71
2022/11/20 09:09:47;;;;;;;17.92;9.98;;;7.90;99.90;;;;;;5009766;28;20029;-70
2022/11/20 09:12:13;;;;;;;16.73;10.32;;;8.10;99.90;;;;;;5009990;28;20060;-69
2022/11/20 09:14:39;;;;;;;23.50;12.23;;;8.30;99.90;;;;;;4992059;28;20026;-68
2022/11/20 09:17:07;;;;;;;23.75;13.60;;;8.30;99.90;;;;;;5009671;28;20042;-75
2022/11/20 09:19:33;;;;;;;21.83;13.90;;;8.40;99.90;;;;;;5008451;28;20476;-68
2022/11/20 09:21:59;;;;;;;22.90;14.90;;;8.50;99.90;;;;;;4991098;28;20112;-71
2022/11/20 09:24:26;;;;;;;25.73;17.27;;;8.40;99.90;;;;;;4990950;28;20018;-68
2022/11/20 09:26:52;;;;;;;25.67;16.58;;;8.40;99.90;;;;;;4999992;28;20038;-69
2022/11/20 09:29:18;;;;;;;25.40;17.42;;;8.50;99.90;;;;;;5009954;28;20518;-69
2022/11/20 09:31:44;;;;;;;24.60;14.93;;;8.40;99.90;;;;;;5009965;28;20026;-71
2022/11/20 09:34:10;;;;;;;15.30;9.23;;;8.40;99.90;;;;;;5009800;28;20102;-78
2022/11/20 09:36:35;;;;;;;17.60;8.75;;;8.50;99.90;;;;;;5008479;28;20052;-69
2022/11/20 09:39:02;;;;;;;15.55;8.50;;;8.50;99.90;;;;;;4991020;28;20026;-69
2022/11/20 09:41:36;;;;;;;12.77;7.05;;;8.40;99.90;;;;;;4994657;28;20507;-69
2022/11/20 09:44:22;;;;;;;11.63;7.30;;;8.50;99.90;;;;;;5004997;28;20042;-68
2022/11/20 09:47:00;;;;;;;16.38;7.88;;;8.60;99.90;;;;;;4992262;28;20072;-69
2022/11/20 09:49:37;;;;;;;12.93;7.13;;;8.60;99.90;;;;;;4985517;28;20409;-70
2022/11/20 09:52:22;;;;;;;17.77;9.82;;;8.60;99.90;;;;;;5007825;28;20048;-68
2022/11/20 09:54:49;;;;;;;22.00;12.48;;;8.70;99.90;;;;;;4988274;28;20026;-69
2022/11/20 09:57:21;;;;;;;15.60;8.30;;;8.70;99.90;;;;;;4990427;28;20026;-69
2022/11/20 09:59:54;;;;;;;15.35;9.18;;;8.80;99.90;;;;;;4989147;28;20064;-70
2022/11/20 10:02:23;;;;;;;;;;;8.70;99.90;;;;;;4997759;28;20057;-75
2022/11/20 10:05:00;;;;;;;21.25;11.13;;;8.70;99.90;;;;;;4990333;28;19953;-71
2022/11/20 10:07:59;;;;;;;14.00;8.60;;;8.60;99.90;;;;;;4990039;28;20109;-69
2022/11/20 10:10:43;;;;;;;18.30;9.65;;;8.70;99.90;;;;;;4969442;28;20042;-71
2022/11/20 10:13:18;;;;;;;27.65;14.63;;;8.70;99.90;;;;;;4989814;28;20387;-70
2022/11/20 10:15:56;;;;;;;26.77;15.65;;;8.60;99.90;;;;;;4992685;28;20117;-73
2022/11/20 10:18:30;;;;;;;31.55;20.45;;;8.50;99.90;;;;;;4992406;28;20460;-71
2022/11/20 10:21:12;;;;;;;26.08;16.52;;;8.40;99.90;;;;;;4990692;28;20077;-69
2022/11/20 10:23:49;;;;;;;26.67;17.45;;;8.30;99.90;;;;;;4991628;28;20041;-70
2022/11/20 10:26:26;;;;;;;29.58;18.52;;;8.30;99.90;;;;;;4993853;28;20038;-69
2022/11/20 10:29:12;;;;;;;29.58;17.70;;;8.20;99.90;;;;;;4997422;28;20041;-72
2022/11/20 10:32:01;;;;;;;32.25;18.13;;;8.20;99.90;;;;;;4997979;28;20120;-69
2022/11/20 10:34:54;;;;;;;26.00;16.08;;;8.10;99.90;;;;;;4993273;28;20026;-69
2022/11/20 10:37:25;;;;;;;25.08;17.13;;;8.00;99.90;;;;;;5010937;28;20158;-71
2022/11/20 10:40:01;;;;;;;26.60;17.65;;;7.90;99.90;;;;;;5008530;28;20086;-70
2022/11/20 10:43:02;;;;;;;34.63;22.42;;;7.90;99.90;;;;;;4995854;28;20030;-71
2022/11/20 10:45:54;;;;;;;28.58;18.23;;;8.00;99.90;;;;;;4999644;28;20476;-71
2022/11/20 10:48:25;;;;;;;28.75;18.95;;;8.00;99.90;;;;;;5008863;28;20794;-68
2022/11/20 10:51:11;;;;;;;27.30;19.25;;;7.80;99.90;;;;;;5001105;28;20022;-68
2022/11/20 10:54:13;;;;;;;29.65;18.17;;;7.90;99.90;;;;;;4994818;28;20109;-73
2022/11/20 10:56:45;;;;;;;31.48;17.85;;;7.90;99.90;;;;;;5002197;28;20427;-74
2022/11/20 10:59:46;;;;;;;24.75;15.30;;;7.80;99.90;;;;;;5005017;28;20042;-70
2022/11/20 11:02:22;;;;;;;23.52;13.98;;;7.80;99.90;;;;;;5005505;28;20050;-69
2022/11/20 11:04:52;;;;;;;27.13;15.10;;;7.80;99.90;;;;;;5001537;28;20030;-69
2022/11/20 11:07:33;;;;;;;21.02;12.63;;;7.70;99.90;;;;;;4997895;28;20050;-72
2022/11/20 11:09:59;;;;;;;22.08;13.75;;;7.80;99.90;;;;;;4994373;28;20041;-68
2022/11/20 11:12:27;;;;;;;20.90;13.68;;;7.80;99.90;;;;;;5000255;28;20034;-69
2022/11/20 11:14:55;;;;;;;23.95;13.43;;;7.80;99.90;;;;;;4998209;28;20417;-70
2022/11/20 11:17:32;;;;;;;20.35;13.07;;;7.70;99.90;;;;;;4999620;28;20022;-68
2022/11/20 11:19:59;;;;;;;25.05;12.98;;;7.70;99.90;;;;;;4994423;28;20072;-71
2022/11/20 11:22:25;;;;;;;21.52;12.90;;;7.80;99.90;;;;;;5000129;28;20030;-68
2022/11/20 11:24:54;;;;;;;23.90;13.68;;;7.70;99.90;;;;;;4992095;28;20065;-69
2022/11/20 11:27:20;;;;;;;20.52;13.27;;;7.70;99.90;;;;;;4992456;28;20046;-69
2022/11/20 11:29:46;;;;;;;18.77;11.32;;;7.70;99.90;;;;;;4993693;28;20808;-68
2022/11/20 11:32:17;;;;;;;25.30;14.38;;;7.70;99.90;;;;;;4997517;28;20033;-70
2022/11/20 11:34:44;;;;;;;27.60;16.15;;;7.60;99.90;;;;;;5008671;28;20026;-73
2022/11/20 11:37:18;;;;;;;24.55;16.20;;;7.60;99.90;;;;;;4975604;28;20142;-71
2022/11/20 11:39:46;;;;;;;23.98;15.52;;;7.60;99.90;;;;;;5002415;28;20026;-69
2022/11/20 11:42:17;;;;;;;26.67;14.98;;;7.50;99.90;;;;;;5010967;28;20101;-68
2022/11/20 11:45:06;;;;;;;36.20;13.52;;;7.40;99.90;;;;;;5010860;28;20431;-71
2022/11/20 11:47:46;;;;;;;27.80;17.48;;;7.40;99.90;;;;;;4998782;28;20034;-68
2022/11/20 11:50:11;;;;;;;26.23;16.00;;;7.40;99.90;;;;;;5010761;28;20053;-67
2022/11/20 11:52:43;;;;;;;29.08;16.15;;;7.30;99.90;;;;;;5011196;28;20060;-68
2022/11/20 11:55:29;;;;;;;25.35;15.57;;;7.20;99.90;;;;;;5012165;28;20032;-68
2022/11/20 11:58:00;;;;;;;22.05;13.10;;;7.10;99.90;;;;;;5006306;28;20149;-69
2022/11/20 12:00:26;;;;;;;22.15;14.43;;;7.10;99.90;;;;;;5011513;28;20112;-67
2022/11/20 12:03:14;;;;;;;21.05;12.98;;;7.20;99.90;;;;;;5011657;28;20080;-67
2022/11/20 12:05:56;;;;;;;30.70;19.67;;;7.10;99.90;;;;;;5010079;28;20029;-67
2022/11/20 12:08:37;;;;;;;23.98;14.82;;;7.10;99.90;;;;;;4997801;28;20018;-68
2022/11/20 12:12:14;;;;;;;24.48;16.05;;;7.10;99.90;;;;;;5011912;28;20022;-67
2022/11/20 12:14:44;;;;;;;22.52;14.02;;;7.10;99.90;;;;;;4899143;29;20570;-68
2022/11/20 12:17:13;;;;;;;18.10;10.25;;;7.10;99.90;;;;;;4894255;29;20443;-67
2022/11/20 12:19:39;;;;;;;18.70;11.27;;;7.10;99.90;;;;;;4878430;29;20024;-67
2022/11/20 12:22:43;;;;;;;23.88;13.18;;;7.20;99.90;;;;;;4893774;29;20123;-67
2022/11/20 12:25:24;;;;;;;20.63;12.25;;;7.20;99.90;;;;;;4894093;29;20068;-67
2022/11/20 12:28:08;;;;;;;22.27;14.07;;;7.00;99.90;;;;;;4904007;29;20060;-67
2022/11/20 12:30:47;;;;;;;21.73;13.88;;;7.10;99.90;;;;;;4893645;29;20052;-67
2022/11/20 12:33:49;;;;;;;21.08;12.65;;;7.00;99.90;;;;;;4893216;29;20040;-67
2022/11/20 12:36:31;;;;;;;22.60;14.07;;;7.00;99.90;;;;;;4893743;29;20049;-66
2022/11/20 12:39:08;;;;;;;28.40;18.55;;;7.00;99.90;;;;;;4882028;29;20138;-66
2022/11/20 12:47:54;;;;;;;30.30;20.40;;;7.00;99.90;;;;;;4908320;28;20086;-72
2022/11/20 12:51:01;;;;;;;27.85;17.65;;;7.00;99.90;;;;;;5010953;28;20114;-66
2022/11/20 12:53:45;;;;;;;32.25;20.63;;;6.90;99.90;;;;;;4912089;29;20036;-70
2022/11/20 12:56:43;;;;;;;42.30;25.73;;;6.90;99.90;;;;;;4911109;28;20040;-66
2022/11/20 12:59:44;;;;;;;38.63;23.80;;;7.00;99.90;;;;;;4874324;29;20064;-70
2022/11/20 13:02:37;;;;;;;36.90;22.73;;;6.90;99.90;;;;;;4874263;29;20029;-68
2022/11/20 13:05:06;;;;;;;35.58;23.25;;;6.90;99.90;;;;;;4866351;29;20132;-67
2022/11/20 13:07:36;;;;;;;43.97;25.60;;;6.80;99.90;;;;;;4875233;29;20552;-67
2022/11/20 13:10:03;;;;;;;41.03;25.90;;;6.80;99.90;;;;;;4875856;29;20758;-66